sensor_id;sensor_type;location;lat;lon;timestamp;temperature;humidity
957;DHT22;465;48.802;9.224;2022-10-16T00:00:46;17.70;99.90
957;DHT22;465;48.802;9.224;2022-10-16T00:03:13;17.60;99.90
957;DHT22;465;48.802;9.224;2022-10-16T00:05:42;17.50;99.90
957;DHT22;465;48.802;9.224;2022-10-16T00:08:10;17.50;99.90
957;DHT22;465;48.802;9.224;2022-10-16T00:10:37;17.40;99.90
957;DHT22;465;48.802;9.224;2022-10-16T00:13:06;17.40;99.90
957;DHT22;465;48.802;9.224;2022-10-16T00:15:34;17.40;99.90
957;DHT22;465;48.802;9.224;2022-10-16T00:18:03;17.30;99.90
957;DHT22;465;48.802;9.224;2022-10-16T00:20:29;17.30;99.90
957;DHT22;465;48.802;9.224;2022-10-16T00:22:56;17.20;99.90
957;DHT22;465;48.802;9.224;2022-10-16T00:25:23;17.20;99.90
957;DHT22;465;48.802;9.224;2022-10-16T00:27:50;17.20;99.90
957;DHT22;465;48.802;9.224;2022-10-16T00:30:18;17.20;99.90
957;DHT22;465;48.802;9.224;2022-10-16T00:32:45;17.10;99.90
957;DHT22;465;48.802;9.224;2022-10-16T00:35:12;17.00;99.90
957;DHT22;465;48.802;9.224;2022-10-16T00:37:39;17.00;99.90
957;DHT22;465;48.802;9.224;2022-10-16T00:40:06;16.90;99.90
957;DHT22;465;48.802;9.224;2022-10-16T00:42:33;16.90;99.90
957;DHT22;465;48.802;9.224;2022-10-16T00:45:00;16.90;99.90
957;DHT22;465;48.802;9.224;2022-10-16T00:47:30;17.00;99.90
957;DHT22;465;48.802;9.224;2022-10-16T00:50:02;16.90;99.90
957;DHT22;465;48.802;9.224;2022-10-16T00:52:31;16.90;99.90
957;DHT22;465;48.802;9.224;2022-10-16T00:54:58;16.90;99.90
957;DHT22;465;48.802;9.224;2022-10-16T00:57:26;16.90;99.90
957;DHT22;465;48.802;9.224;2022-10-16T00:59:53;16.90;99.90
957;DHT22;465;48.802;9.224;2022-10-16T01:02:20;16.80;99.90
957;DHT22;465;48.802;9.224;2022-10-16T01:04:50;16.80;99.90
957;DHT22;465;48.802;9.224;2022-10-16T01:07:29;16.90;99.90
957;DHT22;465;48.802;9.224;2022-10-16T01:10:06;16.90;99.90
957;DHT22;465;48.802;9.224;2022-10-16T01:12:40;16.90;99.90
957;DHT22;465;48.802;9.224;2022-10-16T01:15:11;16.90;99.90
957;DHT22;465;48.802;9.224;2022-10-16T01:17:44;16.90;99.90
957;DHT22;465;48.802;9.224;2022-10-16T01:20:20;16.90;99.90
957;DHT22;465;48.802;9.224;2022-10-16T01:22:57;17.00;99.90
957;DHT22;465;48.802;9.224;2022-10-16T01:25:35;17.00;99.90
957;DHT22;465;48.802;9.224;2022-10-16T01:28:06;17.00;99.90
957;DHT22;465;48.802;9.224;2022-10-16T01:30:37;16.90;99.90
957;DHT22;465;48.802;9.224;2022-10-16T01:33:10;17.00;99.90
957;DHT22;465;48.802;9.224;2022-10-16T01:35:42;17.00;99.90
957;DHT22;465;48.802;9.224;2022-10-16T01:38:14;16.90;99.90
957;DHT22;465;48.802;9.224;2022-10-16T01:40:45;16.90;99.90
957;DHT22;465;48.802;9.224;2022-10-16T01:43:16;16.90;99.90
957;DHT22;465;48.802;9.224;2022-10-16T01:45:45;16.90;99.90
957;DHT22;465;48.802;9.224;2022-10-16T01:48:14;17.00;99.90
957;DHT22;465;48.802;9.224;2022-10-16T01:50:44;16.90;99.90
957;DHT22;465;48.802;9.224;2022-10-16T01:53:16;16.90;99.90
957;DHT22;465;48.802;9.224;2022-10-16T01:55:46;16.90;99.90
957;DHT22;465;48.802;9.224;2022-10-16T01:58:15;16.90;99.90
957;DHT22;465;48.802;9.224;2022-10-16T02:00:44;16.90;99.90
957;DHT22;465;48.802;9.224;2022-10-16T02:03:14;16.90;99.90
957;DHT22;465;48.802;9.224;2022-10-16T02:05:45;16.90;99.90
957;DHT22;465;48.802;9.224;2022-10-16T02:08:12;16.90;99.90
957;DHT22;465;48.802;9.224;2022-10-16T02:10:40;16.80;99.90
957;DHT22;465;48.802;9.224;2022-10-16T02:13:09;16.80;99.90
957;DHT22;465;48.802;9.224;2022-10-16T02:15:38;16.80;99.90
957;DHT22;465;48.802;9.224;2022-10-16T02:18:05;16.80;99.90
957;DHT22;465;48.802;9.224;2022-10-16T02:20:37;16.80;99.90
957;DHT22;465;48.802;9.224;2022-10-16T02:23:08;16.80;99.90
957;DHT22;465;48.802;9.224;2022-10-16T02:25:40;16.80;99.90
957;DHT22;465;48.802;9.224;2022-10-16T02:28:13;16.80;99.90
957;DHT22;465;48.802;9.224;2022-10-16T02:30:45;16.80;99.90
957;DHT22;465;48.802;9.224;2022-10-16T02:33:15;16.80;99.90
957;DHT22;465;48.802;9.224;2022-10-16T02:35:44;16.80;99.90
957;DHT22;465;48.802;9.224;2022-10-16T02:38:13;16.80;99.90
957;DHT22;465;48.802;9.224;2022-10-16T02:40:41;16.80;99.90
957;DHT22;465;48.802;9.224;2022-10-16T02:43:08;16.80;99.90
957;DHT22;465;48.802;9.224;2022-10-16T02:45:36;16.80;99.90
957;DHT22;465;48.802;9.224;2022-10-16T02:48:04;16.80;99.90
957;DHT22;465;48.802;9.224;2022-10-16T02:50:31;16.70;99.90
957;DHT22;465;48.802;9.224;2022-10-16T02:52:58;16.80;99.90
957;DHT22;465;48.802;9.224;2022-10-16T02:55:24;16.80;99.90
957;DHT22;465;48.802;9.224;2022-10-16T02:57:51;16.70;99.90
957;DHT22;465;48.802;9.224;2022-10-16T03:00:18;16.70;99.90
957;DHT22;465;48.802;9.224;2022-10-16T03:02:45;16.70;99.90
957;DHT22;465;48.802;9.224;2022-10-16T03:05:14;16.70;99.90
957;DHT22;465;48.802;9.224;2022-10-16T03:07:41;16.70;99.90
957;DHT22;465;48.802;9.224;2022-10-16T03:10:08;16.60;99.90
957;DHT22;465;48.802;9.224;2022-10-16T03:12:35;16.70;99.90
957;DHT22;465;48.802;9.224;2022-10-16T03:15:02;16.70;99.90
957;DHT22;465;48.802;9.224;2022-10-16T03:17:28;16.70;99.90
957;DHT22;465;48.802;9.224;2022-10-16T03:19:55;16.70;99.90
957;DHT22;465;48.802;9.224;2022-10-16T03:22:23;16.70;99.90
957;DHT22;465;48.802;9.224;2022-10-16T03:24:50;16.60;99.90
957;DHT22;465;48.802;9.224;2022-10-16T03:27:17;16.60;99.90
957;DHT22;465;48.802;9.224;2022-10-16T03:29:44;16.60;99.90
957;DHT22;465;48.802;9.224;2022-10-16T03:32:10;16.60;99.90
957;DHT22;465;48.802;9.224;2022-10-16T03:34:37;16.50;99.90
957;DHT22;465;48.802;9.224;2022-10-16T03:37:04;16.50;99.90
957;DHT22;465;48.802;9.224;2022-10-16T03:39:32;16.50;99.90
957;DHT22;465;48.802;9.224;2022-10-16T03:41:59;16.50;99.90
957;DHT22;465;48.802;9.224;2022-10-16T03:44:26;16.40;99.90
957;DHT22;465;48.802;9.224;2022-10-16T03:46:52;16.50;99.90
957;DHT22;465;48.802;9.224;2022-10-16T03:49:19;16.40;99.90
957;DHT22;465;48.802;9.224;2022-10-16T03:51:46;16.40;99.90
957;DHT22;465;48.802;9.224;2022-10-16T03:54:12;16.40;99.90
957;DHT22;465;48.802;9.224;2022-10-16T03:56:40;16.40;99.90
957;DHT22;465;48.802;9.224;2022-10-16T03:59:07;16.50;99.90
957;DHT22;465;48.802;9.224;2022-10-16T04:01:34;16.40;99.90
957;DHT22;465;48.802;9.224;2022-10-16T04:04:01;16.40;99.90
957;DHT22;465;48.802;9.224;2022-10-16T04:06:27;16.30;99.90
957;DHT22;465;48.802;9.224;2022-10-16T04:08:54;16.30;99.90
957;DHT22;465;48.802;9.224;2022-10-16T04:11:21;16.20;99.90
957;DHT22;465;48.802;9.224;2022-10-16T04:13:49;16.20;99.90
957;DHT22;465;48.802;9.224;2022-10-16T04:16:16;16.30;99.90
957;DHT22;465;48.802;9.224;2022-10-16T04:18:43;16.20;99.90
957;DHT22;465;48.802;9.224;2022-10-16T04:21:09;16.30;99.90
957;DHT22;465;48.802;9.224;2022-10-16T04:23:36;16.20;99.90
957;DHT22;465;48.802;9.224;2022-10-16T04:26:03;16.00;99.90
957;DHT22;465;48.802;9.224;2022-10-16T04:28:30;16.00;99.90
957;DHT22;465;48.802;9.224;2022-10-16T04:30:58;16.00;99.90
957;DHT22;465;48.802;9.224;2022-10-16T04:33:24;16.00;99.90
957;DHT22;465;48.802;9.224;2022-10-16T04:35:56;16.10;99.90
957;DHT22;465;48.802;9.224;2022-10-16T04:38:23;16.10;99.90
957;DHT22;465;48.802;9.224;2022-10-16T04:40:50;16.10;99.90
957;DHT22;465;48.802;9.224;2022-10-16T04:43:17;16.20;99.90
957;DHT22;465;48.802;9.224;2022-10-16T04:45:43;16.20;99.90
957;DHT22;465;48.802;9.224;2022-10-16T04:48:12;16.20;99.90
957;DHT22;465;48.802;9.224;2022-10-16T04:50:38;16.20;99.90
957;DHT22;465;48.802;9.224;2022-10-16T04:53:05;16.20;99.90
957;DHT22;465;48.802;9.224;2022-10-16T04:55:32;16.20;99.90
957;DHT22;465;48.802;9.224;2022-10-16T04:57:59;16.20;99.90
957;DHT22;465;48.802;9.224;2022-10-16T05:00:26;16.20;99.90
957;DHT22;465;48.802;9.224;2022-10-16T05:02:53;16.20;99.90
957;DHT22;465;48.802;9.224;2022-10-16T05:05:21;16.20;99.90
957;DHT22;465;48.802;9.224;2022-10-16T05:07:48;16.20;99.90
957;DHT22;465;48.802;9.224;2022-10-16T05:10:15;16.20;99.90
957;DHT22;465;48.802;9.224;2022-10-16T05:12:45;16.10;99.90
957;DHT22;465;48.802;9.224;2022-10-16T05:15:12;16.10;99.90
957;DHT22;465;48.802;9.224;2022-10-16T05:17:39;16.10;99.90
957;DHT22;465;48.802;9.224;2022-10-16T05:20:06;16.20;99.90
957;DHT22;465;48.802;9.224;2022-10-16T05:22:34;16.10;99.90
957;DHT22;465;48.802;9.224;2022-10-16T05:25:01;16.10;99.90
957;DHT22;465;48.802;9.224;2022-10-16T05:27:28;16.10;99.90
957;DHT22;465;48.802;9.224;2022-10-16T05:29:55;16.10;99.90
957;DHT22;465;48.802;9.224;2022-10-16T05:32:21;16.10;99.90
957;DHT22;465;48.802;9.224;2022-10-16T05:34:48;16.10;99.90
957;DHT22;465;48.802;9.224;2022-10-16T05:37:15;16.10;99.90
957;DHT22;465;48.802;9.224;2022-10-16T05:39:43;16.00;99.90
957;DHT22;465;48.802;9.224;2022-10-16T05:42:10;16.00;99.90
957;DHT22;465;48.802;9.224;2022-10-16T05:44:36;16.00;99.90
957;DHT22;465;48.802;9.224;2022-10-16T05:47:03;16.00;99.90
957;DHT22;465;48.802;9.224;2022-10-16T05:49:30;16.00;99.90
957;DHT22;465;48.802;9.224;2022-10-16T05:51:56;15.90;99.90
957;DHT22;465;48.802;9.224;2022-10-16T05:54:23;15.90;99.90
957;DHT22;465;48.802;9.224;2022-10-16T05:56:51;15.90;99.90
957;DHT22;465;48.802;9.224;2022-10-16T05:59:18;15.90;99.90
957;DHT22;465;48.802;9.224;2022-10-16T06:01:45;16.00;99.90
957;DHT22;465;48.802;9.224;2022-10-16T06:04:12;16.00;99.90
957;DHT22;465;48.802;9.224;2022-10-16T06:06:38;16.10;99.90
957;DHT22;465;48.802;9.224;2022-10-16T06:09:05;16.10;99.90
957;DHT22;465;48.802;9.224;2022-10-16T06:11:36;16.10;99.90
957;DHT22;465;48.802;9.224;2022-10-16T06:14:04;16.20;99.90
957;DHT22;465;48.802;9.224;2022-10-16T06:16:33;16.20;99.90
957;DHT22;465;48.802;9.224;2022-10-16T06:19:00;16.30;99.90
957;DHT22;465;48.802;9.224;2022-10-16T06:21:28;16.30;99.90
957;DHT22;465;48.802;9.224;2022-10-16T06:23:55;16.40;99.90
957;DHT22;465;48.802;9.224;2022-10-16T06:26:24;16.40;99.90
957;DHT22;465;48.802;9.224;2022-10-16T06:28:51;16.50;99.90
957;DHT22;465;48.802;9.224;2022-10-16T06:31:20;16.50;99.90
957;DHT22;465;48.802;9.224;2022-10-16T06:33:50;16.50;99.90
957;DHT22;465;48.802;9.224;2022-10-16T06:36:17;16.50;99.90
957;DHT22;465;48.802;9.224;2022-10-16T06:38:44;16.50;99.90
957;DHT22;465;48.802;9.224;2022-10-16T06:41:13;16.60;99.90
957;DHT22;465;48.802;9.224;2022-10-16T06:43:40;16.50;99.90
957;DHT22;465;48.802;9.224;2022-10-16T06:46:09;16.60;99.90
957;DHT22;465;48.802;9.224;2022-10-16T06:48:38;16.70;99.90
957;DHT22;465;48.802;9.224;2022-10-16T06:51:06;16.70;99.90
957;DHT22;465;48.802;9.224;2022-10-16T06:53:35;16.80;99.90
957;DHT22;465;48.802;9.224;2022-10-16T06:56:07;16.80;99.90
957;DHT22;465;48.802;9.224;2022-10-16T06:58:34;16.80;99.90
957;DHT22;465;48.802;9.224;2022-10-16T07:01:01;16.90;99.90
957;DHT22;465;48.802;9.224;2022-10-16T07:03:28;16.90;99.90
957;DHT22;465;48.802;9.224;2022-10-16T07:05:56;16.90;99.90
957;DHT22;465;48.802;9.224;2022-10-16T07:08:23;16.90;99.90
957;DHT22;465;48.802;9.224;2022-10-16T07:10:58;17.10;99.90
957;DHT22;465;48.802;9.224;2022-10-16T07:13:26;17.20;99.90
957;DHT22;465;48.802;9.224;2022-10-16T07:15:52;17.30;99.90
957;DHT22;465;48.802;9.224;2022-10-16T07:18:19;17.30;99.90
957;DHT22;465;48.802;9.224;2022-10-16T07:20:46;17.50;99.90
957;DHT22;465;48.802;9.224;2022-10-16T07:23:14;17.60;99.90
957;DHT22;465;48.802;9.224;2022-10-16T07:25:41;17.60;99.90
957;DHT22;465;48.802;9.224;2022-10-16T07:28:07;17.60;99.90
957;DHT22;465;48.802;9.224;2022-10-16T07:30:35;17.70;99.90
957;DHT22;465;48.802;9.224;2022-10-16T07:33:03;17.60;99.90
957;DHT22;465;48.802;9.224;2022-10-16T07:35:29;17.60;99.90
957;DHT22;465;48.802;9.224;2022-10-16T07:37:56;17.50;99.90
957;DHT22;465;48.802;9.224;2022-10-16T07:40:24;17.50;99.90
957;DHT22;465;48.802;9.224;2022-10-16T07:42:52;17.40;99.90
957;DHT22;465;48.802;9.224;2022-10-16T07:45:19;17.40;99.90
957;DHT22;465;48.802;9.224;2022-10-16T07:47:45;17.40;99.90
957;DHT22;465;48.802;9.224;2022-10-16T07:50:12;17.40;99.90
957;DHT22;465;48.802;9.224;2022-10-16T07:52:39;17.40;99.90
957;DHT22;465;48.802;9.224;2022-10-16T07:55:06;17.50;99.90
957;DHT22;465;48.802;9.224;2022-10-16T07:57:35;17.60;99.90
957;DHT22;465;48.802;9.224;2022-10-16T08:00:01;17.70;99.90
957;DHT22;465;48.802;9.224;2022-10-16T08:02:28;17.80;99.90
957;DHT22;465;48.802;9.224;2022-10-16T08:04:55;17.90;99.90
957;DHT22;465;48.802;9.224;2022-10-16T08:07:22;17.90;99.90
957;DHT22;465;48.802;9.224;2022-10-16T08:09:49;17.90;99.90
957;DHT22;465;48.802;9.224;2022-10-16T08:12:17;17.90;99.90
957;DHT22;465;48.802;9.224;2022-10-16T08:14:45;18.00;99.90
957;DHT22;465;48.802;9.224;2022-10-16T08:17:15;18.10;99.90
957;DHT22;465;48.802;9.224;2022-10-16T08:19:44;18.20;99.90
957;DHT22;465;48.802;9.224;2022-10-16T08:22:11;18.40;99.90
957;DHT22;465;48.802;9.224;2022-10-16T08:24:38;18.50;99.90
957;DHT22;465;48.802;9.224;2022-10-16T08:27:05;18.70;99.90
957;DHT22;465;48.802;9.224;2022-10-16T08:29:32;19.10;99.90
957;DHT22;465;48.802;9.224;2022-10-16T08:32:00;19.60;99.90
957;DHT22;465;48.802;9.224;2022-10-16T08:34:27;19.90;99.90
957;DHT22;465;48.802;9.224;2022-10-16T08:36:54;20.10;99.90
957;DHT22;465;48.802;9.224;2022-10-16T08:39:21;20.20;99.90
957;DHT22;465;48.802;9.224;2022-10-16T08:42:05;20.20;99.90
957;DHT22;465;48.802;9.224;2022-10-16T08:44:53;20.40;99.90
957;DHT22;465;48.802;9.224;2022-10-16T08:47:26;20.60;99.90
957;DHT22;465;48.802;9.224;2022-10-16T08:50:10;20.60;99.90
957;DHT22;465;48.802;9.224;2022-10-16T08:52:40;20.60;99.90
957;DHT22;465;48.802;9.224;2022-10-16T08:55:19;20.60;99.90
957;DHT22;465;48.802;9.224;2022-10-16T08:57:49;20.70;99.90
957;DHT22;465;48.802;9.224;2022-10-16T09:00:17;20.60;99.90
957;DHT22;465;48.802;9.224;2022-10-16T09:02:50;20.50;99.90
957;DHT22;465;48.802;9.224;2022-10-16T09:08:44;20.20;99.90
957;DHT22;465;48.802;9.224;2022-10-16T09:11:15;20.30;99.90
957;DHT22;465;48.802;9.224;2022-10-16T09:13:50;20.50;99.90
957;DHT22;465;48.802;9.224;2022-10-16T09:16:22;20.60;99.90
957;DHT22;465;48.802;9.224;2022-10-16T09:18:58;20.70;99.90
957;DHT22;465;48.802;9.224;2022-10-16T09:21:29;20.90;99.90
957;DHT22;465;48.802;9.224;2022-10-16T09:23:59;21.10;99.90
957;DHT22;465;48.802;9.224;2022-10-16T09:26:26;21.50;99.90
957;DHT22;465;48.802;9.224;2022-10-16T09:28:53;21.70;99.90
957;DHT22;465;48.802;9.224;2022-10-16T09:31:22;21.90;99.90
957;DHT22;465;48.802;9.224;2022-10-16T09:33:53;22.10;99.90
957;DHT22;465;48.802;9.224;2022-10-16T09:36:22;22.10;99.90
957;DHT22;465;48.802;9.224;2022-10-16T09:38:50;21.80;99.90
957;DHT22;465;48.802;9.224;2022-10-16T09:41:27;21.80;99.90
957;DHT22;465;48.802;9.224;2022-10-16T09:43:56;22.00;99.90
957;DHT22;465;48.802;9.224;2022-10-16T09:46:28;21.90;99.90
957;DHT22;465;48.802;9.224;2022-10-16T09:48:58;21.80;99.90
957;DHT22;465;48.802;9.224;2022-10-16T09:51:27;21.70;99.90
957;DHT22;465;48.802;9.224;2022-10-16T09:53:57;21.80;99.90
957;DHT22;465;48.802;9.224;2022-10-16T09:56:26;22.10;99.90
957;DHT22;465;48.802;9.224;2022-10-16T09:58:55;22.90;99.90
957;DHT22;465;48.802;9.224;2022-10-16T10:01:26;24.70;99.90
957;DHT22;465;48.802;9.224;2022-10-16T10:03:57;26.20;99.40
957;DHT22;465;48.802;9.224;2022-10-16T10:06:28;26.00;97.80
957;DHT22;465;48.802;9.224;2022-10-16T10:08:57;25.60;97.80
957;DHT22;465;48.802;9.224;2022-10-16T10:11:47;25.30;98.50
957;DHT22;465;48.802;9.224;2022-10-16T10:14:34;25.20;99.00
957;DHT22;465;48.802;9.224;2022-10-16T10:17:12;24.80;99.20
957;DHT22;465;48.802;9.224;2022-10-16T10:19:42;24.80;99.60
957;DHT22;465;48.802;9.224;2022-10-16T10:22:26;24.70;99.30
957;DHT22;465;48.802;9.224;2022-10-16T10:24:59;25.40;98.30
957;DHT22;465;48.802;9.224;2022-10-16T10:27:34;25.80;97.50
957;DHT22;465;48.802;9.224;2022-10-16T10:30:07;26.20;97.00
957;DHT22;465;48.802;9.224;2022-10-16T10:32:42;26.50;96.70
957;DHT22;465;48.802;9.224;2022-10-16T10:35:21;26.60;95.20
957;DHT22;465;48.802;9.224;2022-10-16T10:38:00;26.30;95.40
957;DHT22;465;48.802;9.224;2022-10-16T10:40:39;26.10;96.00
957;DHT22;465;48.802;9.224;2022-10-16T10:43:15;26.10;96.40
957;DHT22;465;48.802;9.224;2022-10-16T10:45:46;26.50;95.70
957;DHT22;465;48.802;9.224;2022-10-16T10:48:20;27.30;94.70
957;DHT22;465;48.802;9.224;2022-10-16T10:50:53;27.80;93.60
957;DHT22;465;48.802;9.224;2022-10-16T10:53:31;28.00;92.50
957;DHT22;465;48.802;9.224;2022-10-16T10:56:10;29.10;91.70
957;DHT22;465;48.802;9.224;2022-10-16T10:58:55;31.30;86.90
957;DHT22;465;48.802;9.224;2022-10-16T11:01:32;33.70;76.00
957;DHT22;465;48.802;9.224;2022-10-16T11:07:05;36.00;62.30
957;DHT22;465;48.802;9.224;2022-10-16T11:09:36;36.50;58.40
957;DHT22;465;48.802;9.224;2022-10-16T11:12:07;36.00;58.30
957;DHT22;465;48.802;9.224;2022-10-16T11:14:40;34.30;60.00
957;DHT22;465;48.802;9.224;2022-10-16T11:17:13;34.00;59.80
957;DHT22;465;48.802;9.224;2022-10-16T11:19:44;33.00;61.20
957;DHT22;465;48.802;9.224;2022-10-16T11:22:19;32.20;62.70
957;DHT22;465;48.802;9.224;2022-10-16T11:24:49;32.30;64.10
957;DHT22;465;48.802;9.224;2022-10-16T11:27:21;32.90;64.20
957;DHT22;465;48.802;9.224;2022-10-16T11:29:53;34.30;61.10
957;DHT22;465;48.802;9.224;2022-10-16T11:32:27;34.90;57.90
957;DHT22;465;48.802;9.224;2022-10-16T11:35:00;34.30;57.50
957;DHT22;465;48.802;9.224;2022-10-16T11:37:33;33.50;59.50
957;DHT22;465;48.802;9.224;2022-10-16T11:40:19;33.90;58.60
957;DHT22;465;48.802;9.224;2022-10-16T11:42:54;33.60;58.50
957;DHT22;465;48.802;9.224;2022-10-16T11:45:27;33.40;58.40
957;DHT22;465;48.802;9.224;2022-10-16T11:48:00;34.50;57.70
957;DHT22;465;48.802;9.224;2022-10-16T11:50:31;35.80;55.80
957;DHT22;465;48.802;9.224;2022-10-16T11:53:11;37.60;52.80
957;DHT22;465;48.802;9.224;2022-10-16T11:55:43;38.20;51.10
957;DHT22;465;48.802;9.224;2022-10-16T11:58:17;39.00;49.50
957;DHT22;465;48.802;9.224;2022-10-16T12:00:51;39.80;47.60
957;DHT22;465;48.802;9.224;2022-10-16T12:03:22;39.80;45.30
957;DHT22;465;48.802;9.224;2022-10-16T12:06:01;39.00;45.90
957;DHT22;465;48.802;9.224;2022-10-16T12:08:35;38.90;45.40
957;DHT22;465;48.802;9.224;2022-10-16T12:11:20;38.90;45.10
957;DHT22;465;48.802;9.224;2022-10-16T12:13:48;37.50;47.00
957;DHT22;465;48.802;9.224;2022-10-16T12:16:23;36.30;47.80
957;DHT22;465;48.802;9.224;2022-10-16T12:19:07;35.00;50.50
957;DHT22;465;48.802;9.224;2022-10-16T12:21:36;34.00;52.80
957;DHT22;465;48.802;9.224;2022-10-16T12:24:04;33.40;52.90
957;DHT22;465;48.802;9.224;2022-10-16T12:26:32;32.60;53.40
957;DHT22;465;48.802;9.224;2022-10-16T12:29:13;32.00;55.10
957;DHT22;465;48.802;9.224;2022-10-16T12:31:44;31.80;56.60
957;DHT22;465;48.802;9.224;2022-10-16T12:34:22;31.60;56.90
957;DHT22;465;48.802;9.224;2022-10-16T12:36:50;31.60;56.60
957;DHT22;465;48.802;9.224;2022-10-16T12:39:22;31.40;56.00
957;DHT22;465;48.802;9.224;2022-10-16T12:42:01;30.50;57.30
957;DHT22;465;48.802;9.224;2022-10-16T12:44:33;30.00;58.70
957;DHT22;465;48.802;9.224;2022-10-16T12:47:00;30.00;59.70
957;DHT22;465;48.802;9.224;2022-10-16T12:49:34;29.50;59.50
957;DHT22;465;48.802;9.224;2022-10-16T12:52:03;29.40;61.50
957;DHT22;465;48.802;9.224;2022-10-16T12:54:34;29.00;62.00
957;DHT22;465;48.802;9.224;2022-10-16T12:57:16;29.00;62.90
957;DHT22;465;48.802;9.224;2022-10-16T12:59:50;29.30;64.60
957;DHT22;465;48.802;9.224;2022-10-16T13:05:20;29.30;63.40
957;DHT22;465;48.802;9.224;2022-10-16T13:07:57;28.70;63.60
957;DHT22;465;48.802;9.224;2022-10-16T13:10:34;28.30;65.80
957;DHT22;465;48.802;9.224;2022-10-16T13:13:21;28.00;67.60
957;DHT22;465;48.802;9.224;2022-10-16T13:16:02;27.80;68.60
957;DHT22;465;48.802;9.224;2022-10-16T13:18:41;28.40;68.60
957;DHT22;465;48.802;9.224;2022-10-16T13:21:18;29.00;67.20
957;DHT22;465;48.802;9.224;2022-10-16T13:23:51;29.40;65.60
957;DHT22;465;48.802;9.224;2022-10-16T13:26:31;29.30;65.10
957;DHT22;465;48.802;9.224;2022-10-16T13:29:00;29.20;65.90
957;DHT22;465;48.802;9.224;2022-10-16T13:31:28;28.90;65.00
957;DHT22;465;48.802;9.224;2022-10-16T13:33:57;28.80;65.80
957;DHT22;465;48.802;9.224;2022-10-16T13:36:26;28.70;65.40
957;DHT22;465;48.802;9.224;2022-10-16T13:39:10;28.50;66.30
957;DHT22;465;48.802;9.224;2022-10-16T13:41:38;28.30;66.40
957;DHT22;465;48.802;9.224;2022-10-16T13:44:12;27.80;67.70
957;DHT22;465;48.802;9.224;2022-10-16T13:46:40;27.50;68.20
957;DHT22;465;48.802;9.224;2022-10-16T13:49:13;27.30;68.30
957;DHT22;465;48.802;9.224;2022-10-16T13:51:40;27.10;69.40
957;DHT22;465;48.802;9.224;2022-10-16T13:54:09;27.30;70.90
957;DHT22;465;48.802;9.224;2022-10-16T13:56:40;27.40;70.70
957;DHT22;465;48.802;9.224;2022-10-16T13:59:23;27.40;71.60
957;DHT22;465;48.802;9.224;2022-10-16T14:01:52;27.20;70.60
957;DHT22;465;48.802;9.224;2022-10-16T14:04:21;27.20;71.50
957;DHT22;465;48.802;9.224;2022-10-16T14:06:50;27.00;72.60
957;DHT22;465;48.802;9.224;2022-10-16T14:09:23;26.90;73.70
957;DHT22;465;48.802;9.224;2022-10-16T14:11:55;26.80;74.10
957;DHT22;465;48.802;9.224;2022-10-16T14:14:23;26.50;72.40
957;DHT22;465;48.802;9.224;2022-10-16T14:16:51;26.30;74.90
957;DHT22;465;48.802;9.224;2022-10-16T14:19:21;26.10;76.10
957;DHT22;465;48.802;9.224;2022-10-16T14:21:49;26.10;76.70
957;DHT22;465;48.802;9.224;2022-10-16T14:24:30;26.00;76.30
957;DHT22;465;48.802;9.224;2022-10-16T14:26:59;25.90;77.80
957;DHT22;465;48.802;9.224;2022-10-16T14:29:27;25.70;78.40
957;DHT22;465;48.802;9.224;2022-10-16T14:31:58;25.60;78.40
957;DHT22;465;48.802;9.224;2022-10-16T14:34:28;25.60;79.70
957;DHT22;465;48.802;9.224;2022-10-16T14:36:56;25.60;80.70
957;DHT22;465;48.802;9.224;2022-10-16T14:39:24;25.60;81.00
957;DHT22;465;48.802;9.224;2022-10-16T14:41:52;25.50;81.70
957;DHT22;465;48.802;9.224;2022-10-16T14:44:28;25.30;82.10
957;DHT22;465;48.802;9.224;2022-10-16T14:46:56;25.20;83.10
957;DHT22;465;48.802;9.224;2022-10-16T14:49:25;25.10;83.40
957;DHT22;465;48.802;9.224;2022-10-16T14:51:53;25.10;84.30
957;DHT22;465;48.802;9.224;2022-10-16T14:54:20;25.20;85.20
957;DHT22;465;48.802;9.224;2022-10-16T14:56:49;25.30;85.20
957;DHT22;465;48.802;9.224;2022-10-16T14:59:24;25.40;84.40
957;DHT22;465;48.802;9.224;2022-10-16T15:01:54;25.40;84.70
957;DHT22;465;48.802;9.224;2022-10-16T15:04:21;25.40;84.90
957;DHT22;465;48.802;9.224;2022-10-16T15:06:48;25.40;86.30
957;DHT22;465;48.802;9.224;2022-10-16T15:09:15;25.30;86.40
957;DHT22;465;48.802;9.224;2022-10-16T15:11:42;25.30;86.60
957;DHT22;465;48.802;9.224;2022-10-16T15:14:11;25.50;86.80
957;DHT22;465;48.802;9.224;2022-10-16T15:16:40;25.50;87.10
957;DHT22;465;48.802;9.224;2022-10-16T15:19:06;25.40;87.70
957;DHT22;465;48.802;9.224;2022-10-16T15:21:33;25.40;88.30
957;DHT22;465;48.802;9.224;2022-10-16T15:24:00;25.40;88.50
957;DHT22;465;48.802;9.224;2022-10-16T15:26:28;25.30;89.20
957;DHT22;465;48.802;9.224;2022-10-16T15:28:55;25.30;89.90
957;DHT22;465;48.802;9.224;2022-10-16T15:31:23;25.20;90.00
957;DHT22;465;48.802;9.224;2022-10-16T15:33:53;25.20;89.80
957;DHT22;465;48.802;9.224;2022-10-16T15:36:27;25.10;89.90
957;DHT22;465;48.802;9.224;2022-10-16T15:38:55;24.90;90.20
957;DHT22;465;48.802;9.224;2022-10-16T15:41:22;24.80;90.70
957;DHT22;465;48.802;9.224;2022-10-16T15:43:49;24.60;91.00
957;DHT22;465;48.802;9.224;2022-10-16T15:46:19;24.50;91.30
957;DHT22;465;48.802;9.224;2022-10-16T15:48:46;24.40;91.80
957;DHT22;465;48.802;9.224;2022-10-16T15:51:15;24.30;92.20
957;DHT22;465;48.802;9.224;2022-10-16T15:53:42;24.20;92.60
957;DHT22;465;48.802;9.224;2022-10-16T15:56:12;24.10;93.10
957;DHT22;465;48.802;9.224;2022-10-16T15:58:39;24.00;93.50
957;DHT22;465;48.802;9.224;2022-10-16T16:01:06;23.90;94.10
957;DHT22;465;48.802;9.224;2022-10-16T16:03:35;23.80;94.50
957;DHT22;465;48.802;9.224;2022-10-16T16:06:04;23.70;94.80
957;DHT22;465;48.802;9.224;2022-10-16T16:08:32;23.60;95.50
957;DHT22;465;48.802;9.224;2022-10-16T16:10:59;23.50;96.30
957;DHT22;465;48.802;9.224;2022-10-16T16:13:26;23.40;96.90
957;DHT22;465;48.802;9.224;2022-10-16T16:15:53;23.20;97.50
957;DHT22;465;48.802;9.224;2022-10-16T16:18:20;23.10;98.20
957;DHT22;465;48.802;9.224;2022-10-16T16:20:48;22.90;99.00
957;DHT22;465;48.802;9.224;2022-10-16T16:23:14;22.70;99.60
957;DHT22;465;48.802;9.224;2022-10-16T16:25:43;22.60;99.90
957;DHT22;465;48.802;9.224;2022-10-16T16:28:09;22.40;99.90
957;DHT22;465;48.802;9.224;2022-10-16T16:30:39;22.30;99.90
957;DHT22;465;48.802;9.224;2022-10-16T16:33:06;22.20;99.90
957;DHT22;465;48.802;9.224;2022-10-16T16:35:33;22.20;99.90
957;DHT22;465;48.802;9.224;2022-10-16T16:37:59;22.10;99.90
957;DHT22;465;48.802;9.224;2022-10-16T16:40:27;21.90;99.90
957;DHT22;465;48.802;9.224;2022-10-16T16:42:55;21.80;99.90
957;DHT22;465;48.802;9.224;2022-10-16T16:45:22;21.70;99.90
957;DHT22;465;48.802;9.224;2022-10-16T16:47:51;21.70;99.90
957;DHT22;465;48.802;9.224;2022-10-16T16:50:17;21.70;99.90
957;DHT22;465;48.802;9.224;2022-10-16T16:52:44;21.60;99.90
957;DHT22;465;48.802;9.224;2022-10-16T16:55:11;21.70;99.90
957;DHT22;465;48.802;9.224;2022-10-16T16:57:37;21.60;99.90
957;DHT22;465;48.802;9.224;2022-10-16T17:00:06;21.50;99.90